Time;durP1;ratioP1;P1;durP2;ratioP2;P2;SDS_P1;SDS_P2;PMS_P1;PMS_P2;Temp;Humidity;BMP_temperature;BMP_pressure;BME280_temperature;BME280_humidity;BME280_pressure;Samples;Min_cycle;Max_cycle;Signal;HPM_P1;HPM_P2
2023/04/21 00:00:17;;;;;;;16.25;10.82;;;8.80;99.90;;;;;;4996607;28;20162;-77
2023/04/21 00:02:45;;;;;;;15.60;9.52;;;8.80;99.90;;;;;;4996621;28;20062;-77
2023/04/21 00:05:12;;;;;;;15.82;9.80;;;8.80;99.90;;;;;;4979436;28;20085;-77
2023/04/21 00:07:39;;;;;;;15.07;9.52;;;8.80;99.90;;;;;;4996114;28;20062;-76
2023/04/21 00:10:10;;;;;;;13.60;10.75;;;8.70;99.90;;;;;;4996488;28;20053;-76
2023/04/21 00:12:36;;;;;;;14.45;9.40;;;8.80;99.90;;;;;;4997028;28;20447;-78
2023/04/21 00:15:03;;;;;;;13.93;9.10;;;8.80;99.90;;;;;;4996451;28;20404;-79
2023/04/21 00:17:28;;;;;;;18.58;9.60;;;8.80;99.90;;;;;;4979391;28;20137;-77
2023/04/21 00:19:54;;;;;;;15.43;10.35;;;8.70;99.90;;;;;;4996755;28;20417;-77
2023/04/21 00:22:21;;;;;;;14.95;10.00;;;8.70;99.90;;;;;;4996013;28;20120;-77
2023/04/21 00:24:46;;;;;;;18.90;11.07;;;8.80;99.90;;;;;;4979395;28;20137;-76
2023/04/21 00:27:14;;;;;;;17.27;10.52;;;8.80;99.90;;;;;;4996154;28;20176;-76
2023/04/21 00:29:40;;;;;;;19.30;10.32;;;8.70;99.90;;;;;;4978919;28;20066;-77
2023/04/21 00:32:10;;;;;;;17.30;9.88;;;8.60;99.90;;;;;;4996019;28;20476;-76
2023/04/21 00:34:35;;;;;;;15.68;10.15;;;8.60;99.90;;;;;;4996040;28;20149;-77
2023/04/21 00:37:01;;;;;;;16.15;9.65;;;8.60;99.90;;;;;;4995911;28;20045;-76
2023/04/21 00:39:27;;;;;;;17.95;10.77;;;8.60;99.90;;;;;;4996072;28;20046;-76
2023/04/21 00:41:53;;;;;;;14.07;10.00;;;8.60;99.90;;;;;;4996179;28;20054;-77
2023/04/21 00:44:18;;;;;;;12.93;9.43;;;8.60;99.90;;;;;;4979418;28;20070;-76
2023/04/21 00:46:44;;;;;;;15.10;9.43;;;8.70;99.90;;;;;;4979408;28;20047;-76
2023/04/21 00:49:12;;;;;;;13.60;9.82;;;8.50;99.90;;;;;;4962233;28;20038;-77
2023/04/21 00:51:38;;;;;;;13.98;9.30;;;8.50;99.90;;;;;;4996318;28;20096;-76
2023/04/21 00:54:05;;;;;;;15.95;9.68;;;8.50;99.90;;;;;;4995607;28;20042;-75
2023/04/21 00:56:33;;;;;;;14.15;9.52;;;8.50;99.90;;;;;;4995819;28;20042;-77
2023/04/21 00:59:00;;;;;;;14.38;10.05;;;8.50;99.90;;;;;;4996233;28;20042;-76
2023/04/21 01:01:29;;;;;;;14.48;9.82;;;8.50;99.90;;;;;;4979020;28;20117;-75
2023/04/21 01:04:00;;;;;;;13.45;9.10;;;8.50;99.90;;;;;;4995424;28;20046;-76
2023/04/21 01:06:31;;;;;;;17.33;10.20;;;8.50;99.90;;;;;;4995996;28;20042;-76
2023/04/21 01:08:57;;;;;;;14.50;9.75;;;8.50;99.90;;;;;;4962794;28;20053;-76
2023/04/21 01:11:23;;;;;;;14.80;9.68;;;8.50;99.90;;;;;;4995545;28;20050;-76
2023/04/21 01:13:53;;;;;;;14.45;9.55;;;8.40;99.90;;;;;;4995520;28;20350;-76
2023/04/21 01:16:20;;;;;;;16.08;9.63;;;8.40;99.90;;;;;;4995403;28;20133;-76
2023/04/21 01:18:46;;;;;;;15.20;9.82;;;8.40;99.90;;;;;;4994294;28;20058;-77
2023/04/21 01:21:13;;;;;;;15.90;9.70;;;8.40;99.90;;;;;;4978717;28;20068;-76
2023/04/21 01:23:42;;;;;;;14.88;10.15;;;8.40;99.90;;;;;;4973955;28;20105;-78
2023/04/21 01:26:08;;;;;;;16.85;9.75;;;8.60;99.90;;;;;;4975593;28;20050;-77
2023/04/21 01:28:34;;;;;;;16.70;9.27;;;8.40;99.90;;;;;;4975609;28;20062;-77
2023/04/21 01:30:59;;;;;;;14.00;9.85;;;8.40;99.90;;;;;;4974341;28;20046;-78
2023/04/21 01:33:25;;;;;;;17.00;10.02;;;8.50;99.90;;;;;;4975523;28;20205;-77
2023/04/21 01:35:51;;;;;;;17.90;10.43;;;8.40;99.90;;;;;;4975230;28;20046;-78
2023/04/21 01:38:17;;;;;;;13.68;9.73;;;8.30;99.90;;;;;;4975345;28;20050;-77
2023/04/21 01:40:48;;;;;;;15.07;9.18;;;8.30;99.90;;;;;;4975927;28;20101;-78
2023/04/21 01:43:16;;;;;;;16.10;9.82;;;8.30;99.90;;;;;;4975212;28;20053;-77
2023/04/21 01:45:41;;;;;;;17.40;10.07;;;8.30;99.90;;;;;;4975293;28;20057;-78
2023/04/21 01:48:07;;;;;;;16.83;11.10;;;8.20;99.90;;;;;;4975206;28;20046;-77
2023/04/21 01:50:33;;;;;;;16.13;9.98;;;8.20;99.90;;;;;;4975749;28;20047;-77
2023/04/21 01:52:59;;;;;;;15.23;10.38;;;8.20;99.90;;;;;;4975081;28;20042;-77
2023/04/21 01:55:24;;;;;;;18.15;10.48;;;8.20;99.90;;;;;;4975414;28;20449;-78
2023/04/21 01:57:50;;;;;;;14.90;10.38;;;8.40;99.90;;;;;;4975068;28;20058;-78
2023/04/21 02:00:16;;;;;;;13.82;10.55;;;8.20;99.90;;;;;;4973775;28;20046;-77
2023/04/21 02:02:42;;;;;;;17.50;10.60;;;8.20;99.90;;;;;;4975281;28;20046;-77
2023/04/21 02:05:08;;;;;;;16.48;11.32;;;8.20;99.90;;;;;;4957903;28;20534;-77
2023/04/21 02:07:33;;;;;;;16.90;11.07;;;8.10;99.90;;;;;;4957702;28;20043;-77
2023/04/21 02:09:59;;;;;;;16.65;11.38;;;8.10;99.90;;;;;;4973761;28;20141;-77
2023/04/21 02:12:25;;;;;;;18.50;10.80;;;8.10;99.90;;;;;;4974561;28;20046;-78
2023/04/21 02:14:50;;;;;;;14.45;10.00;;;8.10;99.90;;;;;;4974853;28;20055;-77
2023/04/21 02:17:16;;;;;;;20.60;11.45;;;8.10;99.90;;;;;;4974833;28;20054;-75
2023/04/21 02:19:42;;;;;;;18.67;11.75;;;8.00;99.90;;;;;;4974721;28;20122;-77
2023/04/21 02:22:09;;;;;;;15.38;10.27;;;8.20;99.90;;;;;;4977419;28;20511;-78
2023/04/21 02:24:35;;;;;;;18.92;11.38;;;8.00;99.90;;;;;;4994265;28;20058;-77
2023/04/21 02:27:01;;;;;;;16.77;11.18;;;8.00;99.90;;;;;;4977365;28;20137;-77
2023/04/21 02:29:27;;;;;;;16.23;10.75;;;8.00;99.90;;;;;;4977104;28;20056;-77
2023/04/21 02:31:53;;;;;;;17.27;10.93;;;8.00;99.90;;;;;;4994800;28;20467;-77
2023/04/21 02:34:19;;;;;;;17.63;11.00;;;7.90;99.90;;;;;;4994453;28;20082;-77
2023/04/21 02:36:45;;;;;;;19.45;11.27;;;7.90;99.90;;;;;;4994517;28;20065;-78
2023/04/21 02:39:11;;;;;;;18.73;11.05;;;7.90;99.90;;;;;;4994519;28;20064;-77
2023/04/21 02:41:38;;;;;;;15.75;11.25;;;7.90;99.90;;;;;;4994153;28;20054;-77
2023/04/21 02:44:04;;;;;;;17.98;11.57;;;7.90;99.90;;;;;;4994274;28;20109;-76
2023/04/21 02:46:29;;;;;;;15.88;10.82;;;8.10;99.90;;;;;;4993896;28;20050;-76
2023/04/21 02:48:55;;;;;;;16.13;10.80;;;7.90;99.90;;;;;;4993872;28;20105;-77
2023/04/21 02:51:21;;;;;;;15.98;10.63;;;7.90;99.90;;;;;;4994191;28;20054;-77
2023/04/21 02:53:47;;;;;;;16.80;10.48;;;7.80;99.90;;;;;;4993727;28;20506;-76
2023/04/21 02:56:13;;;;;;;19.52;11.30;;;7.80;99.90;;;;;;4994292;28;20050;-76
2023/04/21 02:58:39;;;;;;;15.30;10.90;;;7.90;99.90;;;;;;4993763;28;20050;-77
2023/04/21 03:01:05;;;;;;;15.73;10.88;;;7.80;99.90;;;;;;4976721;28;20062;-77
2023/04/21 03:03:31;;;;;;;16.42;11.30;;;8.00;99.90;;;;;;4993816;28;20042;-76
2023/04/21 03:06:01;;;;;;;20.17;11.60;;;7.80;99.90;;;;;;4993833;28;20038;-76
2023/04/21 03:08:27;;;;;;;16.63;10.48;;;7.70;99.90;;;;;;4993793;28;20054;-76
2023/04/21 03:10:53;;;;;;;14.93;10.45;;;7.80;99.90;;;;;;4993694;28;20053;-76
2023/04/21 03:13:19;;;;;;;15.30;10.25;;;7.80;99.90;;;;;;4976817;28;20042;-76
2023/04/21 03:15:45;;;;;;;16.70;10.70;;;7.70;99.90;;;;;;4976596;28;20444;-76
2023/04/21 03:18:11;;;;;;;14.85;10.35;;;7.80;99.90;;;;;;4993588;28;20076;-76
2023/04/21 03:20:36;;;;;;;17.27;11.05;;;7.70;99.90;;;;;;4976255;28;20046;-76
2023/04/21 03:23:02;;;;;;;14.25;10.68;;;7.70;99.90;;;;;;4975850;28;20125;-75
2023/04/21 03:25:28;;;;;;;16.23;10.18;;;7.80;99.90;;;;;;4976309;28;20125;-77
2023/04/21 03:27:54;;;;;;;17.27;10.63;;;7.70;99.90;;;;;;4994372;28;20042;-76
2023/04/21 03:30:21;;;;;;;18.55;10.05;;;7.70;99.90;;;;;;4993757;28;20065;-77
2023/04/21 03:32:46;;;;;;;15.77;10.20;;;7.80;99.90;;;;;;4994288;28;20049;-76
2023/04/21 03:35:12;;;;;;;16.30;10.15;;;7.80;99.90;;;;;;4976722;28;20488;-77
2023/04/21 03:37:38;;;;;;;15.02;10.02;;;7.90;99.90;;;;;;4976598;28;20058;-77
2023/04/21 03:40:10;;;;;;;14.45;9.80;;;7.80;99.90;;;;;;4993408;28;20048;-77
2023/04/21 03:42:36;;;;;;;14.02;9.35;;;7.80;99.90;;;;;;4978623;28;20066;-77
2023/04/21 03:45:03;;;;;;;14.10;9.15;;;7.80;99.90;;;;;;4980520;28;20046;-77
2023/04/21 03:47:29;;;;;;;17.25;9.52;;;7.80;99.90;;;;;;4996858;28;20046;-76
2023/04/21 03:49:55;;;;;;;12.98;8.90;;;7.80;99.90;;;;;;4979560;28;20042;-77
2023/04/21 03:52:21;;;;;;;14.35;9.57;;;7.80;99.90;;;;;;4996688;28;20050;-76
2023/04/21 03:54:46;;;;;;;15.18;9.70;;;8.00;99.90;;;;;;4997289;28;20046;-76
2023/04/21 03:57:12;;;;;;;15.77;9.98;;;7.80;99.90;;;;;;4996751;28;20050;-76
2023/04/21 03:59:38;;;;;;;14.13;8.45;;;7.80;99.90;;;;;;4997102;28;20391;-75
2023/04/21 04:02:03;;;;;;;15.07;9.73;;;7.90;99.90;;;;;;4996320;28;20046;-74
2023/04/21 04:04:29;;;;;;;13.18;9.27;;;7.90;99.90;;;;;;4996516;28;20049;-75
2023/04/21 04:06:55;;;;;;;15.35;9.00;;;8.10;99.90;;;;;;4996566;28;20049;-76
2023/04/21 04:09:21;;;;;;;13.63;8.82;;;7.90;99.90;;;;;;4979659;28;20042;-76
2023/04/21 04:11:46;;;;;;;14.68;8.85;;;7.90;99.90;;;;;;4996430;28;20385;-76
2023/04/21 04:14:12;;;;;;;12.98;8.55;;;7.90;99.90;;;;;;4996399;28;20057;-77
2023/04/21 04:16:38;;;;;;;13.50;8.13;;;8.00;99.90;;;;;;4996383;28;20073;-77
2023/04/21 04:19:03;;;;;;;16.67;9.02;;;7.90;99.90;;;;;;4996261;28;20396;-77
2023/04/21 04:21:31;;;;;;;17.63;9.38;;;7.90;99.90;;;;;;4978918;28;20046;-77
2023/04/21 04:23:57;;;;;;;12.18;8.63;;;7.90;99.90;;;;;;4996328;28;20058;-77
2023/04/21 04:26:24;;;;;;;14.60;8.77;;;8.00;99.90;;;;;;4996150;28;20507;-77
2023/04/21 04:28:51;;;;;;;13.88;9.32;;;7.90;99.90;;;;;;4962833;28;20049;-77
2023/04/21 04:31:18;;;;;;;14.38;8.40;;;7.90;99.90;;;;;;4996549;28;20148;-76
2023/04/21 04:33:43;;;;;;;13.52;8.80;;;8.00;99.90;;;;;;4995998;28;20093;-76
2023/04/21 04:36:12;;;;;;;14.38;8.45;;;7.90;99.90;;;;;;4995904;28;20086;-77
2023/04/21 04:38:39;;;;;;;14.63;8.80;;;8.10;99.90;;;;;;4996278;28;20049;-78
2023/04/21 04:41:05;;;;;;;14.07;8.40;;;8.00;99.90;;;;;;4996353;28;20061;-77
2023/04/21 04:43:35;;;;;;;13.45;8.68;;;8.00;99.90;;;;;;4995801;28;20400;-77
2023/04/21 04:46:04;;;;;;;13.48;8.25;;;8.00;99.90;;;;;;4995746;28;20044;-77
2023/04/21 04:48:31;;;;;;;12.98;8.38;;;7.90;99.90;;;;;;4995683;28;20136;-77
2023/04/21 04:50:56;;;;;;;12.73;8.23;;;8.10;99.90;;;;;;4995564;28;20058;-77
2023/04/21 04:53:22;;;;;;;15.07;8.93;;;8.00;99.90;;;;;;4995137;28;20042;-78
2023/04/21 04:55:48;;;;;;;12.90;8.18;;;8.00;99.90;;;;;;4995467;28;20495;-78
2023/04/21 04:58:13;;;;;;;14.60;9.07;;;8.00;99.90;;;;;;4978604;28;20051;-78
2023/04/21 05:00:39;;;;;;;14.45;8.00;;;7.60;99.90;;;;;;4978249;28;20089;-77
2023/04/21 05:03:05;;;;;;;12.07;8.15;;;8.00;99.90;;;;;;4995653;28;20124;-77
2023/04/21 05:05:31;;;;;;;14.80;8.40;;;8.00;99.90;;;;;;4995880;28;20469;-76
2023/04/21 05:07:57;;;;;;;13.65;8.60;;;8.00;99.90;;;;;;4995285;28;20058;-78
2023/04/21 05:10:23;;;;;;;11.85;7.85;;;8.10;99.90;;;;;;4995294;28;20046;-78
2023/04/21 05:12:49;;;;;;;15.82;8.60;;;8.00;99.90;;;;;;4995971;28;20164;-77
2023/04/21 05:15:16;;;;;;;12.25;8.77;;;8.00;99.90;;;;;;4995235;28;20476;-77
2023/04/21 05:17:41;;;;;;;10.93;7.82;;;8.10;99.90;;;;;;4978769;28;20476;-78
2023/04/21 05:20:08;;;;;;;10.43;8.07;;;8.10;99.90;;;;;;4995077;28;20046;-76
2023/04/21 05:22:37;;;;;;;15.57;8.23;;;8.10;99.90;;;;;;4994817;28;20117;-77
2023/04/21 05:25:04;;;;;;;18.77;7.72;;;8.10;99.90;;;;;;4994991;28;20050;-78
2023/04/21 05:27:30;;;;;;;12.70;8.15;;;8.10;99.90;;;;;;4994927;28;20050;-77
2023/04/21 05:29:55;;;;;;;13.90;8.35;;;8.10;99.90;;;;;;4995291;28;20105;-78
2023/04/21 05:32:21;;;;;;;13.65;7.88;;;8.20;99.90;;;;;;4994824;28;20081;-78
2023/04/21 05:34:47;;;;;;;15.57;7.68;;;8.20;99.90;;;;;;4994818;28;20052;-77
2023/04/21 05:37:12;;;;;;;16.88;8.38;;;8.20;99.90;;;;;;4995821;28;20045;-78
2023/04/21 05:39:38;;;;;;;13.75;7.30;;;8.20;99.90;;;;;;4977616;28;20043;-78
2023/04/21 05:42:04;;;;;;;15.27;9.25;;;8.20;99.90;;;;;;4994375;28;20104;-79
2023/04/21 05:44:30;;;;;;;11.77;8.10;;;8.30;99.90;;;;;;4978308;28;20054;-78
2023/04/21 05:46:55;;;;;;;12.68;7.47;;;8.30;99.90;;;;;;4977890;28;20149;-78
2023/04/21 05:49:21;;;;;;;11.82;7.65;;;8.30;99.90;;;;;;4945888;28;20046;-79
2023/04/21 05:51:47;;;;;;;12.43;7.78;;;8.40;99.90;;;;;;4961084;28;20046;-76
2023/04/21 05:54:12;;;;;;;13.63;7.40;;;8.40;99.90;;;;;;4978088;28;20054;-77
2023/04/21 05:56:38;;;;;;;11.55;7.53;;;8.40;99.90;;;;;;4977146;28;20085;-77
2023/04/21 05:59:05;;;;;;;12.10;7.03;;;8.50;99.90;;;;;;4994590;28;20078;-77
2023/04/21 06:01:31;;;;;;;14.48;7.60;;;8.50;99.90;;;;;;4977524;28;20049;-78
2023/04/21 06:03:57;;;;;;;11.38;8.20;;;8.50;99.90;;;;;;4993952;28;20086;-76
2023/04/21 06:06:25;;;;;;;13.65;7.40;;;8.60;99.90;;;;;;4977528;28;20090;-77
2023/04/21 06:08:51;;;;;;;12.07;8.20;;;8.60;99.90;;;;;;4994477;28;20465;-77
2023/04/21 06:11:17;;;;;;;14.57;7.80;;;8.60;99.90;;;;;;4977568;28;20058;-78
2023/04/21 06:13:42;;;;;;;10.82;7.78;;;8.70;99.90;;;;;;4994166;28;20100;-78
2023/04/21 06:16:08;;;;;;;13.10;7.88;;;8.70;99.90;;;;;;4994116;28;20050;-78
2023/04/21 06:18:34;;;;;;;13.60;7.50;;;8.80;99.90;;;;;;4994034;28;20484;-76
2023/04/21 06:20:59;;;;;;;12.15;7.43;;;9.20;99.90;;;;;;4976886;28;20039;-77
2023/04/21 06:23:25;;;;;;;11.55;7.07;;;8.90;99.90;;;;;;4993927;28;20073;-78
2023/04/21 06:26:05;;;;;;;13.60;7.63;;;8.90;99.90;;;;;;4994019;28;20046;-77
2023/04/21 06:28:32;;;;;;;11.38;7.43;;;9.00;99.90;;;;;;4993950;28;20046;-77
2023/04/21 06:30:59;;;;;;;12.63;7.97;;;9.00;99.90;;;;;;4994277;28;20484;-77
2023/04/21 06:33:25;;;;;;;13.85;7.63;;;9.10;99.90;;;;;;4994698;28;20381;-77
2023/04/21 06:35:52;;;;;;;13.85;7.72;;;9.10;99.90;;;;;;4993952;28;20050;-76
2023/04/21 06:38:18;;;;;;;13.27;7.78;;;9.20;99.90;;;;;;4994340;28;20050;-77
2023/04/21 06:40:43;;;;;;;13.93;7.32;;;9.20;99.90;;;;;;4993939;28;20042;-77
2023/04/21 06:43:09;;;;;;;13.30;7.47;;;9.20;99.90;;;;;;4976919;28;20046;-77
2023/04/21 06:45:35;;;;;;;13.77;7.53;;;9.30;99.90;;;;;;4993827;28;20093;-77
2023/04/21 06:48:01;;;;;;;11.25;7.35;;;9.40;99.90;;;;;;4976725;28;20138;-76
2023/04/21 06:50:26;;;;;;;12.48;7.05;;;9.40;99.90;;;;;;4993779;28;20044;-76
2023/04/21 06:52:52;;;;;;;9.80;7.50;;;9.50;99.90;;;;;;4993736;28;20460;-76
2023/04/21 06:55:18;;;;;;;11.15;7.07;;;9.50;99.90;;;;;;4976462;28;20042;-76
2023/04/21 06:57:43;;;;;;;10.23;7.35;;;9.60;99.90;;;;;;4976454;28;20050;-76
2023/04/21 07:00:10;;;;;;;12.38;6.82;;;9.60;99.90;;;;;;4993600;28;20420;-76
2023/04/21 07:02:36;;;;;;;11.15;7.25;;;9.70;99.90;;;;;;4994169;28;20086;-76
2023/04/21 07:05:01;;;;;;;11.82;7.20;;;9.70;99.90;;;;;;4993648;28;20046;-76
2023/04/21 07:07:27;;;;;;;12.85;7.28;;;9.80;99.90;;;;;;4993711;28;20042;-76
2023/04/21 07:09:53;;;;;;;10.23;6.95;;;9.80;99.90;;;;;;4976480;28;20100;-77
2023/04/21 07:12:18;;;;;;;11.27;7.57;;;9.90;99.90;;;;;;4993646;28;20515;-77
2023/04/21 07:14:44;;;;;;;11.27;7.75;;;10.00;99.90;;;;;;4993604;28;20046;-76
2023/04/21 07:17:10;;;;;;;11.20;7.32;;;10.00;99.90;;;;;;4995482;28;20042;-76
2023/04/21 07:19:36;;;;;;;13.90;7.43;;;10.10;99.90;;;;;;4997241;28;20050;-77
2023/04/21 07:22:01;;;;;;;11.10;7.55;;;10.10;99.90;;;;;;4980044;28;20042;-76
2023/04/21 07:24:27;;;;;;;14.35;7.18;;;10.20;99.90;;;;;;4996981;28;20134;-75
2023/04/21 07:26:53;;;;;;;10.98;7.20;;;10.20;99.90;;;;;;4980181;28;20118;-76
2023/04/21 07:29:18;;;;;;;10.80;7.13;;;10.20;99.90;;;;;;4980192;28;20504;-76
2023/04/21 07:31:47;;;;;;;11.82;7.05;;;10.30;99.90;;;;;;4980888;28;20137;-76
2023/04/21 07:34:13;;;;;;;8.80;6.97;;;10.40;99.90;;;;;;4997221;28;20047;-76
2023/04/21 07:36:38;;;;;;;10.60;6.60;;;10.40;99.90;;;;;;4979953;28;20054;-76
2023/04/21 07:39:05;;;;;;;13.40;7.72;;;10.50;99.90;;;;;;4997062;28;20105;-76
2023/04/21 07:41:30;;;;;;;10.93;6.57;;;10.50;99.90;;;;;;4997115;28;20124;-76
2023/04/21 07:43:56;;;;;;;13.23;7.20;;;10.60;99.90;;;;;;4997528;28;20472;-76
2023/04/21 07:46:24;;;;;;;11.45;7.55;;;10.70;99.90;;;;;;4997234;28;20049;-76
2023/04/21 07:48:50;;;;;;;12.30;7.47;;;10.70;99.90;;;;;;4996938;28;20554;-78
2023/04/21 07:51:16;;;;;;;14.50;7.78;;;10.80;99.90;;;;;;4997391;28;20046;-77
2023/04/21 07:53:42;;;;;;;9.32;6.93;;;10.80;99.90;;;;;;4996801;28;20050;-79
2023/04/21 07:56:08;;;;;;;12.05;6.97;;;10.90;99.90;;;;;;4979466;28;20058;-78
2023/04/21 07:58:34;;;;;;;13.07;7.40;;;11.00;99.90;;;;;;4996672;28;20054;-77
2023/04/21 08:01:00;;;;;;;11.20;7.30;;;11.10;99.90;;;;;;4997479;28;20061;-75
2023/04/21 08:03:25;;;;;;;13.32;7.38;;;11.10;99.90;;;;;;4963715;28;20050;-79
2023/04/21 08:05:51;;;;;;;11.30;7.55;;;11.20;99.90;;;;;;4997117;28;20050;-77
2023/04/21 08:08:19;;;;;;;11.68;6.75;;;11.30;99.90;;;;;;4996565;28;20046;-76
2023/04/21 08:10:45;;;;;;;11.70;7.65;;;11.30;99.90;;;;;;4997074;28;20050;-77
2023/04/21 08:13:11;;;;;;;13.15;7.10;;;11.40;99.90;;;;;;4963457;28;20122;-78
2023/04/21 08:15:37;;;;;;;13.20;7.93;;;11.50;99.90;;;;;;4996563;28;20373;-76
2023/04/21 08:18:03;;;;;;;11.40;7.07;;;11.60;99.90;;;;;;4997937;28;20085;-80
2023/04/21 08:20:28;;;;;;;10.60;7.28;;;11.60;99.90;;;;;;4998361;28;20093;-77
2023/04/21 08:22:54;;;;;;;14.98;7.63;;;11.70;99.90;;;;;;4998409;28;20054;-78
2023/04/21 08:25:20;;;;;;;12.65;7.80;;;11.80;99.90;;;;;;4980798;28;20051;-77
2023/04/21 08:27:46;;;;;;;15.60;7.25;;;11.80;99.90;;;;;;4997754;28;20061;-80
2023/04/21 08:30:12;;;;;;;12.07;7.38;;;11.90;99.90;;;;;;4997933;28;20042;-79
2023/04/21 08:32:38;;;;;;;13.27;7.15;;;12.00;99.90;;;;;;4996887;28;20403;-77
2023/04/21 08:35:03;;;;;;;11.98;7.68;;;12.00;99.90;;;;;;4996144;28;20061;-78
2023/04/21 08:37:29;;;;;;;9.88;6.57;;;12.20;99.90;;;;;;4996064;28;20051;-80
2023/04/21 08:39:55;;;;;;;11.18;6.93;;;12.20;99.90;;;;;;4978556;28;20049;-79
2023/04/21 08:42:21;;;;;;;11.82;6.97;;;12.30;99.90;;;;;;4996185;28;20057;-79
2023/04/21 08:44:47;;;;;;;12.38;7.00;;;12.40;99.90;;;;;;4978481;28;20058;-78
2023/04/21 08:47:14;;;;;;;8.70;6.80;;;12.50;99.90;;;;;;4996312;28;20038;-76
2023/04/21 08:49:41;;;;;;;10.05;6.70;;;12.50;99.90;;;;;;4995902;28;20052;-78
2023/04/21 08:52:07;;;;;;;14.48;6.30;;;12.60;99.90;;;;;;4996470;28;20081;-77
2023/04/21 08:54:35;;;;;;;14.43;7.15;;;12.70;99.90;;;;;;4978568;28;20058;-78
2023/04/21 08:57:02;;;;;;;10.02;6.45;;;12.70;99.90;;;;;;4978568;28;20050;-79
2023/04/21 08:59:28;;;;;;;9.82;6.13;;;12.80;99.90;;;;;;4995582;28;20088;-77
2023/04/21 09:02:12;;;;;;;10.88;6.55;;;12.90;99.90;;;;;;4996156;28;20150;-77
2023/04/21 09:04:39;;;;;;;8.80;6.38;;;13.10;99.90;;;;;;4995993;28;20046;-79
2023/04/21 09:07:05;;;;;;;9.25;6.70;;;13.10;99.90;;;;;;4979018;28;20058;-78
2023/04/21 09:09:31;;;;;;;11.85;6.03;;;13.20;99.90;;;;;;4995595;28;20448;-78
2023/04/21 09:11:58;;;;;;;10.57;6.80;;;13.30;99.90;;;;;;4978372;28;20507;-78
2023/04/21 09:14:34;;;;;;;7.88;5.72;;;13.40;99.90;;;;;;4995345;28;20046;-79
2023/04/21 09:17:03;;;;;;;13.95;6.35;;;13.40;99.90;;;;;;4994969;28;20504;-78
2023/04/21 09:19:33;;;;;;;9.80;5.78;;;13.50;99.90;;;;;;4995116;28;20117;-76
2023/04/21 09:22:02;;;;;;;10.27;5.93;;;13.60;99.90;;;;;;4995338;28;20488;-78
2023/04/21 09:24:29;;;;;;;9.07;5.88;;;13.70;99.90;;;;;;4995086;28;20054;-78
2023/04/21 09:26:55;;;;;;;10.43;5.93;;;13.80;99.90;;;;;;4995253;28;20603;-78
2023/04/21 09:29:24;;;;;;;10.23;5.50;;;13.90;99.90;;;;;;4995011;28;20133;-79
2023/04/21 09:31:51;;;;;;;9.80;6.15;;;13.90;99.90;;;;;;4995683;28;20042;-77
2023/04/21 09:34:19;;;;;;;8.98;5.97;;;14.00;99.90;;;;;;4977726;28;20046;-76
2023/04/21 09:36:46;;;;;;;9.43;6.28;;;14.10;99.90;;;;;;4994920;28;20088;-77
2023/04/21 09:39:11;;;;;;;11.98;6.43;;;14.20;99.90;;;;;;4976921;28;20073;-76
2023/04/21 09:41:37;;;;;;;13.77;7.18;;;14.30;99.90;;;;;;4994699;28;20484;-78
2023/04/21 09:44:03;;;;;;;11.88;6.13;;;14.30;99.90;;;;;;4977770;28;20085;-78
2023/04/21 09:46:32;;;;;;;10.30;6.13;;;14.40;99.90;;;;;;4961067;28;20108;-77
2023/04/21 09:49:00;;;;;;;9.45;6.53;;;14.50;99.90;;;;;;4994826;28;20049;-78
2023/04/21 09:51:28;;;;;;;13.25;6.28;;;14.50;99.90;;;;;;4994411;28;20046;-78
2023/04/21 09:54:08;;;;;;;11.13;6.13;;;14.50;99.90;;;;;;4994410;28;20046;-77
2023/04/21 09:56:39;;;;;;;11.20;6.13;;;14.60;99.90;;;;;;4976929;28;20476;-75
2023/04/21 09:59:08;;;;;;;11.68;6.25;;;14.70;99.90;;;;;;4961713;28;20050;-77
2023/04/21 10:01:34;;;;;;;10.38;6.03;;;14.90;99.90;;;;;;4994624;28;20157;-76
2023/04/21 10:04:01;;;;;;;7.30;5.35;;;15.00;99.90;;;;;;4994269;28;20050;-75
2023/04/21 10:06:27;;;;;;;8.30;5.80;;;15.00;99.90;;;;;;4994261;28;20052;-76
2023/04/21 10:08:56;;;;;;;8.60;5.78;;;15.10;99.90;;;;;;4994270;28;20370;-76
2023/04/21 10:11:22;;;;;;;9.13;5.72;;;15.20;99.90;;;;;;4994156;28;20049;-76
2023/04/21 10:13:49;;;;;;;7.70;5.07;;;15.30;99.90;;;;;;4994212;28;20046;-78
2023/04/21 10:16:16;;;;;;;10.82;5.30;;;15.40;99.90;;;;;;4994252;28;20050;-77
2023/04/21 10:18:44;;;;;;;8.43;5.40;;;15.50;99.90;;;;;;4994081;28;20345;-78
2023/04/21 10:21:11;;;;;;;11.27;6.50;;;15.50;99.90;;;;;;4994289;28;20090;-76
2023/04/21 10:23:43;;;;;;;6.93;5.20;;;15.60;99.90;;;;;;4993885;28;20503;-76
2023/04/21 10:26:24;;;;;;;8.35;5.60;;;15.80;99.90;;;;;;4995002;28;20057;-76
2023/04/21 10:29:08;;;;;;;9.77;5.22;;;15.80;99.90;;;;;;4977263;28;20047;-76
2023/04/21 10:31:50;;;;;;;6.55;4.97;;;15.90;99.90;;;;;;4994076;28;20050;-78
2023/04/21 10:34:18;;;;;;;9.25;4.65;;;16.00;99.90;;;;;;4994133;28;20053;-76
2023/04/21 10:36:44;;;;;;;8.95;5.00;;;16.10;99.90;;;;;;4994008;28;20185;-74
2023/04/21 10:39:15;;;;;;;8.65;5.10;;;16.10;99.90;;;;;;4994020;28;20154;-73
2023/04/21 10:41:43;;;;;;;11.23;5.05;;;16.10;99.90;;;;;;4994593;28;20046;-76
2023/04/21 10:44:08;;;;;;;8.05;4.97;;;16.20;99.90;;;;;;4994732;28;20057;-76
2023/04/21 10:46:45;;;;;;;7.60;5.13;;;16.20;99.90;;;;;;4993921;28;20393;-78
2023/04/21 10:49:25;;;;;;;7.45;4.65;;;16.20;99.90;;;;;;4976572;28;20051;-77
2023/04/21 10:51:57;;;;;;;9.35;4.47;;;16.30;99.90;;;;;;4997158;28;20057;-73
2023/04/21 10:54:46;;;;;;;7.35;4.10;;;16.40;99.90;;;;;;4997802;28;20054;-74
2023/04/21 10:57:18;;;;;;;8.82;4.68;;;16.50;99.90;;;;;;4980635;28;20474;-76
2023/04/21 10:59:46;;;;;;;9.27;5.20;;;16.70;99.90;;;;;;4965110;28;20464;-77
2023/04/21 11:02:13;;;;;;;7.45;4.32;;;16.70;99.90;;;;;;4980576;28;20046;-77
2023/04/21 11:04:43;;;;;;;7.65;4.45;;;16.80;99.90;;;;;;4997526;28;20057;-76
2023/04/21 11:07:10;;;;;;;6.22;4.00;;;16.80;99.90;;;;;;4997664;28;20054;-76
2023/04/21 11:09:37;;;;;;;10.30;4.50;;;16.90;99.90;;;;;;4997537;28;20125;-74
2023/04/21 11:12:06;;;;;;;8.93;4.05;;;17.00;99.90;;;;;;4997618;28;20054;-75
2023/04/21 11:14:34;;;;;;;5.68;3.85;;;17.10;99.90;;;;;;4997483;28;20053;-79
2023/04/21 11:17:04;;;;;;;7.15;3.83;;;17.20;99.90;;;;;;4997550;28;20118;-76
2023/04/21 11:19:32;;;;;;;7.82;4.10;;;17.20;99.90;;;;;;4964014;28;20042;-76
2023/04/21 11:21:58;;;;;;;8.75;4.20;;;17.20;99.90;;;;;;4998225;28;20160;-74
2023/04/21 11:24:24;;;;;;;8.60;3.90;;;17.30;99.90;;;;;;4997799;28;20516;-77
2023/04/21 11:26:50;;;;;;;7.97;3.67;;;17.30;99.90;;;;;;4997422;28;20085;-77
2023/04/21 11:29:16;;;;;;;6.78;3.22;;;17.40;99.90;;;;;;4997204;28;20050;-75
2023/04/21 11:31:45;;;;;;;5.03;3.70;;;17.40;99.90;;;;;;4979892;28;20049;-76
2023/04/21 11:34:11;;;;;;;6.00;3.78;;;17.50;99.90;;;;;;4997467;28;20127;-79
2023/04/21 11:36:40;;;;;;;7.60;3.83;;;17.50;99.90;;;;;;4997290;28;20046;-79
2023/04/21 11:39:08;;;;;;;5.28;3.47;;;17.60;99.90;;;;;;4996797;28;20535;-73
2023/04/21 11:41:35;;;;;;;9.93;4.03;;;17.60;99.90;;;;;;4979754;28;20050;-76
2023/04/21 11:44:01;;;;;;;7.88;3.90;;;17.70;99.90;;;;;;4980157;28;20404;-75
2023/04/21 11:46:28;;;;;;;8.13;4.03;;;17.70;99.90;;;;;;4980357;28;20495;-76
2023/04/21 11:49:23;;;;;;;6.05;3.40;;;17.70;99.90;;;;;;4979714;28;20050;-75
2023/04/21 11:51:49;;;;;;;12.63;4.05;;;17.70;99.90;;;;;;4977612;28;20062;-75
2023/04/21 11:54:17;;;;;;;4.43;3.10;;;17.70;99.90;;;;;;4979599;28;20126;-75
2023/04/21 11:56:46;;;;;;;8.63;3.35;;;17.70;99.90;;;;;;4996817;28;20046;-74
2023/04/21 11:59:14;;;;;;;6.00;3.55;;;17.80;99.90;;;;;;4996745;28;20043;-75
2023/04/21 12:01:51;;;;;;;6.13;3.55;;;18.00;99.90;;;;;;4964081;28;20065;-76
2023/04/21 12:04:21;;;;;;;8.68;3.80;;;18.10;99.90;;;;;;4996149;28;20058;-78
2023/04/21 12:07:00;;;;;;;5.45;3.50;;;18.10;99.90;;;;;;4996629;28;20057;-73
2023/04/21 12:09:26;;;;;;;7.00;3.22;;;18.10;99.90;;;;;;4996911;28;20440;-78
2023/04/21 12:11:54;;;;;;;6.30;3.05;;;18.10;99.90;;;;;;4997215;28;20053;-78
2023/04/21 12:14:21;;;;;;;6.07;3.35;;;18.10;99.90;;;;;;4997096;28;20120;-78
2023/04/21 12:16:57;;;;;;;5.60;3.05;;;18.10;99.90;;;;;;4996193;28;20054;-80
2023/04/21 12:19:40;;;;;;;6.63;2.75;;;18.20;99.90;;;;;;4995933;28;20049;-78
2023/04/21 12:22:10;;;;;;;6.40;2.55;;;18.30;99.90;;;;;;4996411;28;20385;-76
2023/04/21 12:24:37;;;;;;;5.10;2.65;;;18.30;99.90;;;;;;4996436;28;20500;-79
2023/04/21 12:27:03;;;;;;;4.15;2.67;;;18.40;99.90;;;;;;4962831;28;20488;-76
2023/04/21 12:29:29;;;;;;;5.65;2.65;;;18.40;99.90;;;;;;4996269;28;20047;-77
2023/04/21 12:31:55;;;;;;;5.60;2.38;;;18.40;99.50;;;;;;4996167;28;20046;-81
2023/04/21 12:34:20;;;;;;;9.30;2.75;;;18.40;99.50;;;;;;4996145;28;20054;-77
2023/04/21 12:36:46;;;;;;;3.78;2.08;;;18.50;99.20;;;;;;4996895;28;20184;-79
2023/04/21 12:39:12;;;;;;;6.97;2.70;;;18.70;98.20;;;;;;4995932;28;20042;-79
2023/04/21 12:41:38;;;;;;;5.07;2.65;;;18.80;97.30;;;;;;4978879;28;20121;-82